GCTSEGBB

Guest
Details From GCTS - Tenerife Sur
To EGBB - Birmingham
Flight Number -
Tags Generated
Created
Modified
Stats Distance 1,609 nm / 2,980 km
Max Altitude 0 ft / 0 m
Waypoints 4
Social Downloads 2
Likes 0
Share VATSIM

Download

Looking for another format? Having issues loading an existing format? Contact us
Advertisement - Login to hide

Notes

Generated

Route

GCTS NERLA PEPUL EGBB

ID Type Via Altitude Latitude Longitude Leg Dist Tot Dist Heading (true) Name
O GCTS APT - 0 ft / 0 m 28.03920˚ -16.58764˚ - 0 nm - -
NERLA FIX - 0 ft / 0 m 48.99306˚ -4.63194˚ 1374 nm 1374 nm 20° / 28° -
PEPUL FIX - 0 ft / 0 m 52.26750˚ -1.88722˚ 222 nm 1596 nm 27° / 29° -
O EGBB APT - 0 ft / 0 m 52.45113˚ -1.75493˚ 12 nm 1608 nm 24° / 24° -

Altitude Profile

Advertisement - Login to hide

Weather


0- 5 10 15 20 25 30 35+ Temperature / ° C

Clouds and Precipitation
Forecast for 2018-05-26 18:00 UTC. Updated 4 hours ago

Ground ~20,000 ft ~40,000 ft Winds

GCTS

Details ICAO GCTS (TFS)
Name Tenerife Sur
Region Canary Islands
Timezone Atlantic/Canary (UTC+1.0)
Stats Elevation 209 ft / 64 m (AMSL)
Location 28.044475° -16.572488°
Runways 1
Magnetic Variation 5.065° W

METAR

GCTS 262130Z VRB03KT 9999 SCT034 19/12 Q1019 NOSIG

Decode

TAF

TAF GCTS 262000Z 2621/2721 VRB05KT 9999 BKN045 TX23/2714Z TN18/2705Z BECMG 2707/2710 09015KT

Decode

Departure Runways

ID Width Length Bearing (true) Bearing (mag) Surface Threshold Offset Overrun Length
08 148 ft / 45 m 10,489 ft / 3,197 m 68.47° 73.53° Asphalt 0 ft / 0 m 0 ft / 0 m
26 148 ft / 45 m 10,489 ft / 3,197 m 248.49° 253.55° Asphalt 0 ft / 0 m 0 ft / 0 m

EGBB

Details ICAO EGBB (BHX)
Name Birmingham
Region United Kingdom
Timezone Europe/London (UTC+1.0)
Stats Elevation 327 ft / 100 m (AMSL)
Location 52.455966° -1.750378°
Runways 1
Magnetic Variation 1.072° W

METAR

EGBB 262120Z 04009KT CAVOK 16/08 Q1020

Decode

TAF

TAF EGBB 261657Z 2618/2718 04012KT 9999 FEW025 TEMPO 2621/2714 6000 TSRA PROB30 TEMPO 2622/2714 04015G25KT 2000 +SHRA TSGR BKN010 BKN040CB TEMPO 2714/2718 6000 TSRA

Decode

Destination Runways

ID Width Length Bearing (true) Bearing (mag) Surface Threshold Offset Overrun Length
15 151 ft / 46 m 8,477 ft / 2,584 m 145.87° 146.94° Asphalt 925 ft / 282 m 0 ft / 0 m
33 151 ft / 46 m 8,477 ft / 2,584 m 325.89° 326.96° Asphalt 958 ft / 292 m 0 ft / 0 m

Approach Navaids

Runway Type Ident Frequency Range Bearing (true) Bearing (mag) Slope Elevation
15 Localiser IBIR 110.10 MHz 18 nm / 33 km 145.89° 146.96° - 325 ft / 99 m (AMSL)
15 Glidescope IBIR 110.10 MHz 10 nm / 19 km 145.88° 146.95° 3.00° 325 ft / 99 m (AMSL)
15 DME IBIR 110.10 MHz 18 nm / 33 km - - - 349 ft / 106 m (AMSL)
33 Localiser IBM 110.10 MHz 18 nm / 33 km 325.87° 326.94° - 325 ft / 99 m (AMSL)
33 Glidescope IBM 110.10 MHz 10 nm / 19 km 325.88° 326.95° 3.00° 325 ft / 99 m (AMSL)
33 DME IBM 110.10 MHz 18 nm / 33 km - - - 327 ft / 100 m (AMSL)

Popular Alternatives